Time;durP1;ratioP1;P1;durP2;ratioP2;P2;SDS_P1;SDS_P2;PMS_P1;PMS_P2;Temp;Humidity;BMP_temperature;BMP_pressure;BME280_temperature;BME280_humidity;BME280_pressure;Samples;Min_cycle;Max_cycle;Signal;HPM_P1;HPM_P2
2024/02/08 00:00:00;;;;;;;;;;;19.10;67.10;;;;;;5020659;28;1215;-70
2024/02/08 00:02:26;;;;;;;;;;;19.00;67.10;;;;;;5021307;28;1442;-71
2024/02/08 00:04:51;;;;;;;;;;;19.00;67.20;;;;;;5022736;28;1854;-71
2024/02/08 00:07:17;;;;;;;;;;;19.00;67.20;;;;;;5021815;28;1289;-71
2024/02/08 00:09:42;;;;;;;;;;;19.00;67.40;;;;;;5019759;28;1380;-71
2024/02/08 00:12:08;;;;;;;;;;;19.00;67.50;;;;;;5021688;28;1440;-70
2024/02/08 00:14:34;;;;;;;;;;;19.00;67.60;;;;;;5021325;28;1910;-69
2024/02/08 00:17:00;;;;;;;;;;;19.00;67.70;;;;;;5023757;28;1437;-70
2024/02/08 00:19:25;;;;;;;;;;;19.00;68.00;;;;;;5019832;28;1573;-71
2024/02/08 00:21:51;;;;;;;;;;;19.00;68.00;;;;;;5017777;28;1510;-70
2024/02/08 00:24:16;;;;;;;;;;;19.00;68.20;;;;;;5020887;28;1142;-71
2024/02/08 00:26:42;;;;;;;;;;;19.00;68.30;;;;;;5020562;28;1392;-70
2024/02/08 00:29:10;;;;;;;;;;;19.00;68.40;;;;;;5018697;28;1503;-71
2024/02/08 00:31:36;;;;;;;;;;;19.00;68.60;;;;;;5021352;28;1383;-71
2024/02/08 00:34:01;;;;;;;;;;;19.00;68.80;;;;;;5022975;28;1316;-70
2024/02/08 00:36:27;;;;;;;;;;;19.00;69.00;;;;;;5017363;28;1953;-71
2024/02/08 00:38:52;;;;;;;;;;;19.00;69.00;;;;;;5021704;28;1951;-71
2024/02/08 00:41:23;;;;;;;;;;;19.00;69.00;;;;;;5020007;28;1389;-71
2024/02/08 00:43:50;;;;;;;;;;;19.00;68.80;;;;;;5019129;28;1120;-71
2024/02/08 00:46:15;;;;;;;;;;;19.00;69.00;;;;;;5021731;28;1178;-70
2024/02/08 00:48:43;;;;;;;;;;;19.00;69.10;;;;;;5027268;28;1361;-70
2024/02/08 00:51:08;;;;;;;;;;;19.00;69.20;;;;;;5019467;28;1496;-70
2024/02/08 00:53:34;;;;;;;;;;;19.00;69.20;;;;;;5021597;28;1425;-71
2024/02/08 00:55:59;;;;;;;;;;;19.00;69.30;;;;;;5019774;28;1959;-70
2024/02/08 00:58:25;;;;;;;;;;;19.00;69.40;;;;;;5018303;28;1459;-71
2024/02/08 01:00:53;;;;;;;;;;;18.90;69.50;;;;;;5021337;28;1628;-70
2024/02/08 01:03:18;;;;;;;;;;;19.00;70.00;;;;;;5021429;28;1267;-70
2024/02/08 01:05:48;;;;;;;;;;;19.10;70.00;;;;;;5017279;28;1565;-70
2024/02/08 01:08:14;;;;;;;;;;;19.10;69.30;;;;;;5021086;28;1477;-71
2024/02/08 01:10:39;;;;;;;;;;;19.10;69.50;;;;;;5022077;28;1577;-71
2024/02/08 01:13:05;;;;;;;;;;;19.10;69.30;;;;;;5020150;28;1509;-71
2024/02/08 01:15:30;;;;;;;;;;;19.10;69.40;;;;;;5004462;28;1910;-71
2024/02/08 01:17:56;;;;;;;;;;;19.10;69.30;;;;;;5028118;28;1473;-71
2024/02/08 01:20:22;;;;;;;;;;;19.10;69.50;;;;;;5022973;28;1397;-71
2024/02/08 01:22:50;;;;;;;;;;;19.10;69.40;;;;;;5020396;28;1753;-71
2024/02/08 01:25:16;;;;;;;;;;;19.00;69.30;;;;;;5021659;28;1646;-71
2024/02/08 01:27:43;;;;;;;;;;;19.00;69.40;;;;;;5011821;28;1514;-71
2024/02/08 01:30:09;;;;;;;;;;;19.00;69.30;;;;;;5017741;28;1470;-70
2024/02/08 01:32:35;;;;;;;;;;;19.00;69.30;;;;;;5019496;28;1322;-71
2024/02/08 01:35:00;;;;;;;;;;;19.10;69.20;;;;;;5019194;28;1962;-71
2024/02/08 01:37:26;;;;;;;;;;;19.10;69.10;;;;;;5027908;28;1500;-71
2024/02/08 01:39:51;;;;;;;;;;;19.10;68.90;;;;;;5022008;28;1861;-71
2024/02/08 01:42:17;;;;;;;;;;;19.10;68.80;;;;;;5017068;28;1517;-71
2024/02/08 01:44:46;;;;;;;;;;;19.10;68.70;;;;;;5027487;28;1208;-71
2024/02/08 01:47:12;;;;;;;;;;;19.10;68.50;;;;;;5016454;28;1329;-71
2024/02/08 01:49:37;;;;;;;;;;;19.20;68.50;;;;;;5027187;28;1371;-70
2024/02/08 01:52:03;;;;;;;;;;;19.20;68.50;;;;;;5006119;28;1252;-71
2024/02/08 01:54:29;;;;;;;;;;;19.20;69.20;;;;;;5021318;28;2017;-71
2024/02/08 01:56:54;;;;;;;;;;;19.20;68.50;;;;;;5017455;28;1266;-71
2024/02/08 01:59:20;;;;;;;;;;;19.20;68.40;;;;;;5015377;28;1406;-70
2024/02/08 02:01:52;;;;;;;;;;;19.20;68.70;;;;;;5026372;28;1269;-70
2024/02/08 02:04:17;;;;;;;;;;;19.20;69.40;;;;;;5010377;28;1593;-70
2024/02/08 02:06:43;;;;;;;;;;;19.20;69.00;;;;;;5022206;28;1225;-70
2024/02/08 02:09:12;;;;;;;;;;;19.20;69.40;;;;;;5019909;28;1350;-71
2024/02/08 02:11:37;;;;;;;;;;;19.10;69.50;;;;;;5018986;28;1474;-71
2024/02/08 02:14:04;;;;;;;;;;;19.10;69.70;;;;;;5018080;28;1322;-71
2024/02/08 02:16:29;;;;;;;;;;;19.10;69.80;;;;;;5020404;28;1907;-70
2024/02/08 02:18:56;;;;;;;;;;;19.00;69.90;;;;;;5022272;28;1678;-70
2024/02/08 02:21:21;;;;;;;;;;;19.00;70.00;;;;;;5021052;28;1462;-71
2024/02/08 02:23:47;;;;;;;;;;;19.00;70.10;;;;;;5017835;28;1482;-70
2024/02/08 02:26:13;;;;;;;;;;;19.00;70.10;;;;;;5021213;28;1326;-70
2024/02/08 02:28:39;;;;;;;;;;;19.00;70.20;;;;;;5020580;28;1348;-70
2024/02/08 02:31:06;;;;;;;;;;;19.00;70.30;;;;;;5021789;28;1460;-70
2024/02/08 02:33:34;;;;;;;;;;;19.00;70.40;;;;;;5019215;28;1349;-70
2024/02/08 02:36:01;;;;;;;;;;;19.00;70.50;;;;;;5019346;28;1894;-70
2024/02/08 02:38:26;;;;;;;;;;;19.00;70.40;;;;;;5017455;28;1815;-70
2024/02/08 02:40:52;;;;;;;;;;;19.00;70.70;;;;;;5017409;28;1689;-70
2024/02/08 02:43:18;;;;;;;;;;;19.00;70.60;;;;;;5026133;28;1374;-71
2024/02/08 02:45:46;;;;;;;;;;;18.90;70.70;;;;;;5002327;28;1352;-70
2024/02/08 02:48:12;;;;;;;;;;;19.00;70.90;;;;;;5018942;28;1648;-70
2024/02/08 02:50:41;;;;;;;;;;;18.90;70.80;;;;;;5019760;28;1427;-70
2024/02/08 02:53:07;;;;;;;;;;;19.00;71.50;;;;;;5018354;28;1521;-70
2024/02/08 02:55:34;;;;;;;;;;;19.10;71.10;;;;;;5009117;28;1910;-69
2024/02/08 02:58:00;;;;;;;;;;;19.10;70.70;;;;;;5018717;28;1371;-70
2024/02/08 03:00:33;;;;;;;;;;;19.10;70.40;;;;;;5019591;28;1533;-70
2024/02/08 03:02:59;;;;;;;;;;;19.10;70.10;;;;;;5016934;28;1355;-70
2024/02/08 03:05:24;;;;;;;;;;;19.20;70.70;;;;;;5018895;28;1262;-72
2024/02/08 03:07:50;;;;;;;;;;;19.10;69.40;;;;;;5017311;28;1281;-72
2024/02/08 03:10:20;;;;;;;;;;;19.10;68.00;;;;;;5009392;28;1531;-71
2024/02/08 03:12:51;;;;;;;;;;;19.00;67.60;;;;;;5019624;28;1346;-70
2024/02/08 03:15:17;;;;;;;;;;;18.90;68.50;;;;;;5015309;28;1997;-71
2024/02/08 03:17:46;;;;;;;;;;;18.90;67.90;;;;;;5017747;28;1554;-72
2024/02/08 03:20:16;;;;;;;;;;;18.90;67.90;;;;;;5019029;28;1617;-71
2024/02/08 03:22:43;;;;;;;;;;;18.80;68.00;;;;;;5021052;28;1534;-72
2024/02/08 03:25:14;;;;;;;;;;;18.80;68.10;;;;;;5023460;28;1509;-71
2024/02/08 03:27:42;;;;;;;;;;;18.80;68.10;;;;;;5018334;28;1360;-71
2024/02/08 03:30:19;;;;;;;;;;;18.80;68.20;;;;;;5019941;28;1451;-71
2024/02/08 03:32:49;;;;;;;;;;;18.70;68.10;;;;;;5020061;28;1447;-70
2024/02/08 03:35:16;;;;;;;;;;;18.70;68.10;;;;;;5022210;28;1890;-72
2024/02/08 03:37:43;;;;;;;;;;;18.70;68.10;;;;;;5020154;28;1305;-72
2024/02/08 03:40:10;;;;;;;;;;;18.70;68.10;;;;;;5023555;28;1209;-72
2024/02/08 03:42:35;;;;;;;;;;;18.60;68.80;;;;;;5023163;28;1226;-72
2024/02/08 03:45:01;;;;;;;;;;;18.60;68.00;;;;;;5020622;28;1265;-72
2024/02/08 03:47:26;;;;;;;;;;;18.60;68.00;;;;;;5013511;28;1538;-71
2024/02/08 03:49:52;;;;;;;;;;;18.60;68.00;;;;;;5023198;28;1249;-71
2024/02/08 03:52:20;;;;;;;;;;;18.60;68.00;;;;;;5019502;28;1458;-70
2024/02/08 03:54:46;;;;;;;;;;;18.60;68.00;;;;;;5024055;28;1981;-71
2024/02/08 03:57:12;;;;;;;;;;;18.60;68.00;;;;;;5022708;28;1533;-71
2024/02/08 03:59:40;;;;;;;;;;;18.60;68.00;;;;;;5020052;28;1372;-71
2024/02/08 04:02:06;;;;;;;;;;;18.50;67.90;;;;;;5022258;28;1458;-71
2024/02/08 04:04:53;;;;;;;;;;;18.50;67.90;;;;;;5020596;28;1527;-71
2024/02/08 04:07:21;;;;;;;;;;;18.50;68.00;;;;;;5013322;28;1589;-71
2024/02/08 04:09:56;;;;;;;;;;;18.50;68.00;;;;;;5021007;28;1410;-72
2024/02/08 04:53:32;;;;;;;;;;;18.40;67.80;;;;;;5018377;28;1460;-71
2024/02/08 04:55:59;;;;;;;;;;;18.40;67.80;;;;;;5006268;28;1914;-72
2024/02/08 04:58:26;;;;;;;;;;;18.40;67.80;;;;;;5020253;28;1763;-71
2024/02/08 05:00:52;;;;;;;;;;;18.40;67.80;;;;;;5019875;28;1330;-70
2024/02/08 05:03:19;;;;;;;;;;;18.40;67.80;;;;;;5006461;28;1269;-71
2024/02/08 05:05:46;;;;;;;;;;;18.40;67.80;;;;;;5020331;28;955;-71
2024/02/08 05:08:11;;;;;;;;;;;18.40;67.80;;;;;;5022184;28;1251;-72
2024/02/08 05:10:37;;;;;;;;;;;18.30;67.70;;;;;;5018180;28;1460;-71
2024/02/08 05:13:04;;;;;;;;;;;18.40;67.70;;;;;;5017632;28;1326;-71
2024/02/08 05:15:30;;;;;;;;;;;18.40;67.60;;;;;;5017544;28;1890;-71
2024/02/08 05:17:55;;;;;;;;;;;18.40;67.60;;;;;;5016995;28;1448;-71
2024/02/08 05:20:21;;;;;;;;;;;18.40;67.60;;;;;;5019142;28;939;-72
2024/02/08 05:22:46;;;;;;;;;;;18.40;67.50;;;;;;5018622;28;1483;-72
2024/02/08 05:25:12;;;;;;;;;;;18.40;67.30;;;;;;5027711;28;977;-71
2024/02/08 05:27:37;;;;;;;;;;;18.50;67.20;;;;;;5020110;28;1413;-71
2024/02/08 05:30:03;;;;;;;;;;;18.50;67.10;;;;;;5018375;28;1457;-71
2024/02/08 05:32:29;;;;;;;;;;;18.50;67.00;;;;;;5015194;28;1476;-70
2024/02/08 05:34:54;;;;;;;;;;;18.50;66.80;;;;;;5016739;28;1953;-71
2024/02/08 05:37:25;;;;;;;;;;;18.60;66.80;;;;;;5017592;28;1277;-71
2024/02/08 05:39:51;;;;;;;;;;;18.60;66.70;;;;;;5021085;28;1466;-72
2024/02/08 05:42:17;;;;;;;;;;;18.60;66.60;;;;;;5018657;28;1507;-71
2024/02/08 05:44:45;;;;;;;;;;;18.60;66.50;;;;;;5020268;28;1494;-71
2024/02/08 05:47:15;;;;;;;;;;;18.70;66.50;;;;;;5018380;28;1354;-71
2024/02/08 05:49:48;;;;;;;;;;;18.60;66.30;;;;;;5018845;28;1461;-71
2024/02/08 05:52:14;;;;;;;;;;;18.70;66.40;;;;;;5011541;28;1509;-70
2024/02/08 05:54:45;;;;;;;;;;;18.70;66.20;;;;;;5018023;28;1894;-71
2024/02/08 05:57:12;;;;;;;;;;;18.70;66.10;;;;;;5018986;28;1664;-71
2024/02/08 05:59:38;;;;;;;;;;;18.70;66.10;;;;;;5027003;28;1423;-71
2024/02/08 06:02:13;;;;;;;;;;;18.70;66.10;;;;;;5018573;28;1494;-71
2024/02/08 06:04:41;;;;;;;;;;;18.70;66.00;;;;;;5018269;28;1652;-72
2024/02/08 06:07:06;;;;;;;;;;;18.70;66.00;;;;;;5018390;28;1365;-70
2024/02/08 06:09:47;;;;;;;;;;;18.70;65.90;;;;;;5018603;28;1351;-71
2024/02/08 06:12:42;;;;;;;;;;;18.70;65.90;;;;;;5019553;28;1541;-71
2024/02/08 06:15:33;;;;;;;;;;;18.70;65.80;;;;;;5006242;28;1959;-71
2024/02/08 06:18:03;;;;;;;;;;;18.70;65.80;;;;;;5023790;28;1319;-70
2024/02/08 06:20:43;;;;;;;;;;;18.70;65.70;;;;;;5018486;28;1660;-71
2024/02/08 06:23:23;;;;;;;;;;;18.70;65.70;;;;;;5025803;28;1460;-71
2024/02/08 06:28:54;;;;;;;;;;;18.70;65.70;;;;;;5016026;28;1392;-71
2024/02/08 06:31:19;;;;;;;;;;;18.70;65.70;;;;;;5020353;28;1281;-71
2024/02/08 06:36:40;;;;;;;;;;;18.70;65.70;;;;;;5016887;28;1890;-71
2024/02/08 06:39:23;;;;;;;;;;;18.70;65.70;;;;;;5019252;28;1304;-71
2024/02/08 06:41:52;;;;;;;;;;;18.70;65.70;;;;;;5019045;28;1412;-70
2024/02/08 06:47:29;;;;;;;;;;;18.70;65.70;;;;;;5018707;28;1460;-71
2024/02/08 07:39:35;;;;;;;;;;;18.50;62.70;;;;;;5020397;28;1474;-69
2024/02/08 07:42:12;;;;;;;;;;;18.50;62.80;;;;;;5022180;28;1374;-68
2024/02/08 07:44:39;;;;;;;;;;;18.50;62.80;;;;;;5021281;28;1660;-69
2024/02/08 07:47:05;;;;;;;;;;;18.50;62.90;;;;;;5023335;28;1552;-67
2024/02/08 07:49:42;;;;;;;;;;;18.50;62.90;;;;;;5020691;28;1329;-67
2024/02/08 07:52:19;;;;;;;;;;;18.50;63.00;;;;;;5020949;28;1444;-67
2024/02/08 07:54:50;;;;;;;;;;;18.50;63.10;;;;;;5021854;28;2001;-68
2024/02/08 07:57:24;;;;;;;;;;;18.50;63.10;;;;;;5022813;28;1530;-67
2024/02/08 07:59:52;;;;;;;;;;;18.50;63.20;;;;;;5022920;28;1546;-71
2024/02/08 08:02:23;;;;;;;;;;;18.40;63.10;;;;;;5005251;28;1656;-71
2024/02/08 08:04:51;;;;;;;;;;;18.40;63.90;;;;;;5020619;28;1380;-72
2024/02/08 08:07:24;;;;;;;;;;;18.40;63.10;;;;;;5019122;28;1676;-72
2024/02/08 08:09:59;;;;;;;;;;;18.40;63.20;;;;;;5019455;28;1320;-71
2024/02/08 08:12:29;;;;;;;;;;;18.40;63.20;;;;;;5021475;28;1635;-72
2024/02/08 08:19:52;;;;;;;;;;;18.40;63.30;;;;;;5020449;28;1599;-72
2024/02/08 08:28:09;;;;;;;;;;;18.40;63.50;;;;;;5021246;28;1587;-70
2024/02/08 08:30:38;;;;;;;;;;;18.40;63.60;;;;;;5018116;28;1335;-72
2024/02/08 08:38:28;;;;;;;;;;;18.40;63.70;;;;;;5019740;28;1361;-72
2024/02/08 08:41:14;;;;;;;;;;;18.40;63.70;;;;;;5019461;28;1452;-73
2024/02/08 08:43:52;;;;;;;;;;;18.40;63.70;;;;;;5018484;28;1356;-72
2024/02/08 08:46:19;;;;;;;;;;;18.40;63.70;;;;;;5020494;28;1498;-73
2024/02/08 08:48:50;;;;;;;;;;;18.40;63.70;;;;;;5020714;28;1378;-72
2024/02/08 08:51:22;;;;;;;;;;;18.40;63.60;;;;;;5005247;28;1372;-73
2024/02/08 08:54:00;;;;;;;;;;;18.40;63.60;;;;;;5022074;28;1296;-72
2024/02/08 08:56:29;;;;;;;;;;;18.40;63.50;;;;;;5017741;28;1902;-72
2024/02/08 08:58:58;;;;;;;;;;;18.40;63.40;;;;;;5020849;28;1305;-72
2024/02/08 09:01:24;;;;;;;;;;;18.40;63.20;;;;;;5021616;28;1244;-72
2024/02/08 09:03:56;;;;;;;;;;;18.40;63.20;;;;;;5018963;28;1235;-72
2024/02/08 09:06:25;;;;;;;;;;;18.40;63.10;;;;;;5018946;28;1234;-72
2024/02/08 09:08:58;;;;;;;;;;;18.40;63.10;;;;;;5015872;28;1948;-71
2024/02/08 09:11:24;;;;;;;;;;;18.40;63.10;;;;;;5020969;28;1365;-73
2024/02/08 09:13:53;;;;;;;;;;;18.40;63.00;;;;;;5004212;28;1484;-72
2024/02/08 09:21:35;;;;;;;;;;;18.50;63.10;;;;;;5018575;28;1478;-72
2024/02/08 09:24:04;;;;;;;;;;;18.50;63.10;;;;;;5017518;28;1288;-72
2024/02/08 09:29:25;;;;;;;;;;;18.50;63.10;;;;;;5020545;28;1260;-72
2024/02/08 09:31:56;;;;;;;;;;;18.50;63.10;;;;;;5019300;28;950;-72
2024/02/08 09:34:31;;;;;;;;;;;18.50;63.10;;;;;;5017019;28;1571;-72
2024/02/08 09:36:57;;;;;;;;;;;18.50;63.10;;;;;;5019645;28;1894;-72
2024/02/08 09:39:48;;;;;;;;;;;18.50;63.10;;;;;;5018370;28;1533;-73
2024/02/08 09:42:08;;;;;;;;;;;18.50;63.10;;;;;;5020889;28;1423;-72
2024/02/08 09:44:36;;;;;;;;;;;18.50;63.10;;;;;;5018186;28;1572;-72
2024/02/08 09:47:06;;;;;;;;;;;18.50;63.10;;;;;;5018888;28;1951;-73
2024/02/08 09:49:34;;;;;;;;;;;18.50;63.10;;;;;;5016375;28;1394;-71
2024/02/08 09:52:14;;;;;;;;;;;18.50;63.10;;;;;;5018829;28;1794;-73
2024/02/08 09:54:46;;;;;;;;;;;18.50;63.10;;;;;;5026327;28;1347;-72
2024/02/08 09:57:21;;;;;;;;;;;18.50;63.10;;;;;;5021638;28;1965;-72
2024/02/08 09:59:59;;;;;;;;;;;18.50;63.10;;;;;;5001805;28;1435;-72
2024/02/08 10:02:32;;;;;;;;;;;18.50;64.10;;;;;;5018143;28;1319;-71
2024/02/08 10:04:58;;;;;;;;;;;18.50;63.30;;;;;;5019558;28;1682;-73
2024/02/08 10:07:34;;;;;;;;;;;18.50;63.60;;;;;;5019631;28;1457;-72
2024/02/08 10:10:20;;;;;;;;;;;18.50;63.60;;;;;;5025334;28;1406;-73
2024/02/08 10:13:04;;;;;;;;;;;18.50;63.60;;;;;;5016414;28;1333;-72
2024/02/08 10:15:39;;;;;;;;;;;18.50;63.70;;;;;;5024421;28;1906;-71
2024/02/08 10:18:10;;;;;;;;;;;18.50;63.60;;;;;;5020345;28;1254;-71
2024/02/08 10:20:45;;;;;;;;;;;18.50;63.60;;;;;;5017843;28;1494;-71
2024/02/08 10:23:33;;;;;;;;;;;18.50;63.60;;;;;;5016663;28;1345;-71
2024/02/08 10:28:43;;;;;;;;;;;18.50;63.70;;;;;;5017633;28;1312;-71
2024/02/08 10:31:22;;;;;;;;;;;18.50;63.70;;;;;;5015897;28;1290;-71
2024/02/08 10:33:48;;;;;;;;;;;18.50;63.70;;;;;;5020679;28;1475;-71
2024/02/08 10:36:19;;;;;;;;;;;18.50;63.70;;;;;;5019580;28;1931;-71
2024/02/08 10:38:55;;;;;;;;;;;18.50;63.70;;;;;;5022772;28;1433;-71
2024/02/08 10:41:54;;;;;;;;;;;18.50;63.70;;;;;;5015870;28;1345;-71
2024/02/08 10:44:22;;;;;;;;;;;18.60;63.70;;;;;;5017894;28;1248;-70
2024/02/08 10:46:48;;;;;;;;;;;18.50;63.70;;;;;;5016831;28;1424;-71
2024/02/08 10:49:13;;;;;;;;;;;18.50;63.70;;;;;;5019185;28;1406;-71
2024/02/08 10:51:45;;;;;;;;;;;18.50;63.70;;;;;;5016545;28;1387;-70
2024/02/08 10:54:22;;;;;;;;;;;18.50;63.70;;;;;;5020735;28;1489;-70
2024/02/08 10:57:06;;;;;;;;;;;18.50;63.70;;;;;;5017641;28;2123;-71
2024/02/08 10:59:47;;;;;;;;;;;18.60;63.80;;;;;;5018306;28;2089;-70
2024/02/08 11:02:35;;;;;;;;;;;18.50;63.70;;;;;;5019261;28;1464;-70
2024/02/08 11:05:20;;;;;;;;;;;18.50;63.70;;;;;;5023662;28;1779;-71
2024/02/08 11:07:46;;;;;;;;;;;18.50;63.80;;;;;;5017689;28;1548;-70
2024/02/08 11:10:12;;;;;;;;;;;18.60;63.80;;;;;;5003162;28;1335;-70
2024/02/08 11:12:40;;;;;;;;;;;18.50;63.80;;;;;;5020028;28;1313;-71
2024/02/08 11:15:13;;;;;;;;;;;18.50;63.80;;;;;;5021093;28;1906;-71
2024/02/08 11:17:39;;;;;;;;;;;18.50;63.80;;;;;;5022588;28;1357;-71
2024/02/08 11:20:05;;;;;;;;;;;18.50;63.80;;;;;;5017480;28;1612;-71
2024/02/08 11:22:40;;;;;;;;;;;18.50;63.80;;;;;;5018407;28;1562;-71
2024/02/08 11:25:23;;;;;;;;;;;18.50;63.80;;;;;;5017425;28;1419;-70
2024/02/08 11:27:49;;;;;;;;;;;18.50;63.80;;;;;;5014236;28;1288;-71
2024/02/08 11:30:32;;;;;;;;;;;18.50;63.80;;;;;;5015043;28;1224;-71
2024/02/08 11:33:02;;;;;;;;;;;18.50;63.80;;;;;;5026342;28;1529;-71
2024/02/08 11:35:30;;;;;;;;;;;18.50;63.80;;;;;;5020713;28;1906;-70
2024/02/08 11:38:07;;;;;;;;;;;18.50;63.80;;;;;;5020582;28;1300;-70
2024/02/08 11:40:36;;;;;;;;;;;18.50;64.60;;;;;;5019658;28;1237;-70
2024/02/08 11:43:05;;;;;;;;;;;18.50;63.80;;;;;;5020675;28;1704;-70
2024/02/08 11:45:35;;;;;;;;;;;18.50;63.80;;;;;;5021422;28;1394;-70
2024/02/08 11:48:08;;;;;;;;;;;18.50;63.80;;;;;;5021642;28;1348;-70
2024/02/08 11:50:37;;;;;;;;;;;18.50;63.90;;;;;;5018655;28;1548;-70
2024/02/08 11:53:06;;;;;;;;;;;18.50;63.80;;;;;;5024794;28;993;-70
2024/02/08 11:55:32;;;;;;;;;;;18.50;63.80;;;;;;5022850;28;1910;-70
2024/02/08 11:57:57;;;;;;;;;;;18.50;63.80;;;;;;5021425;28;1367;-70
2024/02/08 12:00:24;;;;;;;;;;;18.50;63.80;;;;;;5020595;28;2120;-70
2024/02/08 12:03:01;;;;;;;;;;;18.50;63.90;;;;;;5020669;28;1660;-70
2024/02/08 12:05:27;;;;;;;;;;;18.50;63.90;;;;;;5020131;28;2112;-70
2024/02/08 12:07:57;;;;;;;;;;;18.50;64.00;;;;;;5019267;28;1927;-70
2024/02/08 12:10:23;;;;;;;;;;;18.50;64.00;;;;;;5021632;28;1932;-70
2024/02/08 12:12:53;;;;;;;;;;;18.50;63.90;;;;;;5019397;28;1237;-70
2024/02/08 12:15:20;;;;;;;;;;;18.50;63.90;;;;;;5023088;28;2357;-70
2024/02/08 12:17:48;;;;;;;;;;;18.50;63.90;;;;;;5022250;28;2362;-71
2024/02/08 12:20:16;;;;;;;;;;;18.50;64.00;;;;;;5018046;28;2249;-70
2024/02/08 12:22:42;;;;;;;;;;;18.50;63.90;;;;;;5021012;28;1390;-70
2024/02/08 12:25:15;;;;;;;;;;;18.50;63.90;;;;;;5020985;28;1273;-70
2024/02/08 12:27:48;;;;;;;;;;;18.50;63.90;;;;;;5023529;28;1320;-70
2024/02/08 12:30:22;;;;;;;;;;;18.50;63.90;;;;;;5022249;28;1222;-70
2024/02/08 12:32:51;;;;;;;;;;;18.60;63.90;;;;;;5023331;28;1534;-69
2024/02/08 12:35:19;;;;;;;;;;;18.50;63.80;;;;;;5020403;28;1906;-70
2024/02/08 12:37:46;;;;;;;;;;;18.60;63.80;;;;;;5019432;28;1487;-71
2024/02/08 12:40:15;;;;;;;;;;;18.60;63.80;;;;;;5019676;28;1509;-71
2024/02/08 12:42:41;;;;;;;;;;;18.60;63.80;;;;;;5028545;28;1352;-71
2024/02/08 12:45:10;;;;;;;;;;;18.60;63.80;;;;;;5018421;28;1686;-71
2024/02/08 12:47:38;;;;;;;;;;;18.60;63.70;;;;;;5018393;28;1343;-71
2024/02/08 12:50:08;;;;;;;;;;;18.60;63.70;;;;;;5017313;28;1220;-70
2024/02/08 12:52:36;;;;;;;;;;;18.60;63.80;;;;;;5018443;28;1305;-70
2024/02/08 12:55:02;;;;;;;;;;;18.60;63.70;;;;;;5018331;28;1957;-70
2024/02/08 12:57:28;;;;;;;;;;;18.60;63.70;;;;;;5019241;28;1307;-70
2024/02/08 13:00:03;;;;;;;;;;;18.60;63.70;;;;;;5027260;28;1280;-70
2024/02/08 13:02:33;;;;;;;;;;;18.60;63.70;;;;;;5021401;28;1412;-70
2024/02/08 13:05:01;;;;;;;;;;;18.60;63.70;;;;;;5022678;28;1038;-71
2024/02/08 13:07:26;;;;;;;;;;;18.60;63.70;;;;;;5019100;28;1245;-71
2024/02/08 13:09:59;;;;;;;;;;;18.60;63.70;;;;;;5022686;28;1607;-70
2024/02/08 13:12:26;;;;;;;;;;;18.60;63.70;;;;;;5020164;28;1439;-70
2024/02/08 13:14:52;;;;;;;;;;;18.60;63.70;;;;;;5019692;28;1454;-70
2024/02/08 13:17:20;;;;;;;;;;;18.60;63.70;;;;;;5020482;28;1989;-71
2024/02/08 13:19:49;;;;;;;;;;;18.60;63.70;;;;;;5014231;28;1543;-71
2024/02/08 13:22:19;;;;;;;;;;;18.60;63.80;;;;;;5017855;28;1246;-71
2024/02/08 13:24:45;;;;;;;;;;;18.60;63.70;;;;;;5020334;28;1535;-70
2024/02/08 13:27:11;;;;;;;;;;;18.60;63.70;;;;;;5021086;28;1327;-71
2024/02/08 13:29:36;;;;;;;;;;;18.60;63.70;;;;;;5022314;28;1353;-71
2024/02/08 13:32:02;;;;;;;;;;;18.60;63.60;;;;;;5019750;28;1470;-70
2024/02/08 13:34:28;;;;;;;;;;;18.60;63.60;;;;;;5016926;28;1465;-70
2024/02/08 13:36:58;;;;;;;;;;;18.60;63.60;;;;;;5028288;28;1966;-70
2024/02/08 13:39:25;;;;;;;;;;;18.60;63.50;;;;;;5017646;28;1469;-71
2024/02/08 13:41:51;;;;;;;;;;;18.70;63.50;;;;;;5016568;28;1575;-70
2024/02/08 13:44:20;;;;;;;;;;;18.70;63.50;;;;;;5021044;28;1602;-70
2024/02/08 13:46:45;;;;;;;;;;;18.70;63.50;;;;;;5018207;28;1973;-70
2024/02/08 13:49:11;;;;;;;;;;;18.70;63.50;;;;;;5018218;28;1468;-70
2024/02/08 13:51:37;;;;;;;;;;;18.70;63.50;;;;;;5017078;28;1257;-71
2024/02/08 13:54:02;;;;;;;;;;;18.60;63.30;;;;;;5018354;28;1308;-70
2024/02/08 13:56:28;;;;;;;;;;;18.70;63.40;;;;;;5017842;28;1911;-71
2024/02/08 13:59:00;;;;;;;;;;;18.70;63.40;;;;;;5020177;28;2052;-72
2024/02/08 14:01:25;;;;;;;;;;;18.70;63.40;;;;;;5018128;28;1348;-71
2024/02/08 14:03:56;;;;;;;;;;;18.70;63.30;;;;;;5018871;28;1310;-72
2024/02/08 14:06:22;;;;;;;;;;;18.70;63.30;;;;;;5017386;28;1243;-70
2024/02/08 14:08:53;;;;;;;;;;;18.70;63.30;;;;;;5016752;28;1568;-70
2024/02/08 14:11:20;;;;;;;;;;;18.70;63.30;;;;;;5017920;28;1399;-70
2024/02/08 14:13:49;;;;;;;;;;;18.70;63.40;;;;;;5020026;28;1567;-70
2024/02/08 14:16:15;;;;;;;;;;;18.70;63.60;;;;;;5018060;28;1981;-70
2024/02/08 14:18:48;;;;;;;;;;;18.70;64.20;;;;;;5017948;28;1376;-70
2024/02/08 14:21:20;;;;;;;;;;;18.70;63.40;;;;;;5019389;28;1198;-70
2024/02/08 14:23:49;;;;;;;;;;;18.70;63.30;;;;;;5018415;28;1532;-70
2024/02/08 14:28:42;;;;;;;;;;;18.70;63.30;;;;;;5017850;28;1384;-70
2024/02/08 14:31:11;;;;;;;;;;;18.70;63.30;;;;;;5018887;28;1567;-70
2024/02/08 14:33:37;;;;;;;;;;;18.70;63.30;;;;;;5014032;28;1600;-70
2024/02/08 14:36:09;;;;;;;;;;;18.70;63.40;;;;;;5017669;28;1906;-70
2024/02/08 14:38:35;;;;;;;;;;;18.70;63.40;;;;;;5017022;28;1344;-70
2024/02/08 14:41:03;;;;;;;;;;;18.70;63.40;;;;;;5018575;28;1248;-70
2024/02/08 14:43:31;;;;;;;;;;;18.70;63.50;;;;;;5021371;28;1316;-70
2024/02/08 14:45:58;;;;;;;;;;;18.70;63.40;;;;;;5019201;28;1450;-71
2024/02/08 14:48:26;;;;;;;;;;;18.70;63.50;;;;;;5017696;28;1930;-70
2024/02/08 14:50:59;;;;;;;;;;;18.70;63.50;;;;;;5015068;28;1273;-71
2024/02/08 14:53:32;;;;;;;;;;;18.70;63.60;;;;;;5016803;28;1433;-70
2024/02/08 14:56:01;;;;;;;;;;;18.70;63.50;;;;;;5018299;28;1980;-70
2024/02/08 14:58:33;;;;;;;;;;;18.60;63.50;;;;;;5016919;28;1284;-70
2024/02/08 15:01:30;;;;;;;;;;;18.60;63.60;;;;;;5018190;28;1462;-70
2024/02/08 15:03:58;;;;;;;;;;;18.60;63.70;;;;;;5020864;28;1224;-70
2024/02/08 15:06:38;;;;;;;;;;;18.60;63.70;;;;;;5018268;28;1989;-71
2024/02/08 15:11:57;;;;;;;;;;;18.60;63.70;;;;;;5017771;28;1897;-70
2024/02/08 15:14:28;;;;;;;;;;;18.60;63.70;;;;;;5019129;28;957;-70
2024/02/08 15:17:01;;;;;;;;;;;18.60;63.70;;;;;;5020299;28;1910;-70
2024/02/08 15:19:45;;;;;;;;;;;18.50;63.70;;;;;;5022442;28;1371;-71
2024/02/08 15:25:03;;;;;;;;;;;18.50;63.80;;;;;;5021120;28;1881;-70
2024/02/08 15:27:32;;;;;;;;;;;18.50;63.90;;;;;;5017621;28;1291;-70
2024/02/08 15:30:10;;;;;;;;;;;18.50;63.90;;;;;;5023742;28;1634;-70
2024/02/08 15:32:46;;;;;;;;;;;18.50;64.70;;;;;;5021346;28;1470;-70
2024/02/08 15:35:35;;;;;;;;;;;18.50;64.00;;;;;;5022473;28;1961;-70
2024/02/08 15:38:19;;;;;;;;;;;18.50;64.00;;;;;;5020397;28;1445;-70
2024/02/08 15:40:47;;;;;;;;;;;18.50;64.00;;;;;;5021212;28;1524;-70
2024/02/08 15:43:15;;;;;;;;;;;18.50;64.00;;;;;;5021205;28;1209;-70
2024/02/08 15:45:44;;;;;;;;;;;18.50;64.10;;;;;;5018110;28;1288;-71
2024/02/08 15:48:17;;;;;;;;;;;18.50;64.10;;;;;;5020908;28;1371;-70
2024/02/08 15:50:46;;;;;;;;;;;18.50;64.10;;;;;;5021469;28;1324;-70
2024/02/08 15:53:18;;;;;;;;;;;18.40;64.10;;;;;;5022418;28;1318;-70
2024/02/08 15:55:49;;;;;;;;;;;18.40;64.20;;;;;;5028856;28;1898;-70
2024/02/08 15:58:34;;;;;;;;;;;18.40;64.20;;;;;;5021953;28;1448;-70
2024/02/08 16:03:39;;;;;;;;;;;18.40;64.20;;;;;;5021565;28;1520;-70
2024/02/08 16:08:59;;;;;;;;;;;18.40;64.30;;;;;;5022837;28;1280;-70
2024/02/08 16:11:29;;;;;;;;;;;18.40;64.40;;;;;;5020772;28;1284;-71
2024/02/08 16:14:03;;;;;;;;;;;18.40;64.30;;;;;;5018348;28;1158;-71
2024/02/08 16:16:29;;;;;;;;;;;18.40;64.40;;;;;;5020080;28;1952;-70
2024/02/08 16:21:41;;;;;;;;;;;18.40;64.40;;;;;;5020871;28;1348;-70
2024/02/08 16:24:13;;;;;;;;;;;18.40;64.50;;;;;;5022193;28;1846;-70
2024/02/08 16:26:44;;;;;;;;;;;18.30;64.40;;;;;;5020470;28;1120;-71
2024/02/08 16:29:16;;;;;;;;;;;18.30;64.40;;;;;;5020994;28;1320;-70
2024/02/08 16:31:43;;;;;;;;;;;18.30;64.50;;;;;;5017647;28;1261;-71
2024/02/08 16:34:22;;;;;;;;;;;18.30;64.50;;;;;;5020434;28;1371;-71
2024/02/08 16:36:50;;;;;;;;;;;18.30;64.50;;;;;;5020168;28;1898;-70
2024/02/08 16:41:55;;;;;;;;;;;18.30;64.50;;;;;;5020406;28;998;-71
2024/02/08 16:44:29;;;;;;;;;;;18.30;64.50;;;;;;5020889;28;1013;-70
2024/02/08 16:46:59;;;;;;;;;;;18.30;64.50;;;;;;5023193;28;1592;-70
2024/02/08 16:49:27;;;;;;;;;;;18.30;64.60;;;;;;5023437;28;1444;-70
2024/02/08 16:51:55;;;;;;;;;;;18.30;64.60;;;;;;5050870;28;1819;-70
2024/02/08 16:54:33;;;;;;;;;;;18.30;64.60;;;;;;5022433;28;1576;-70
2024/02/08 16:57:03;;;;;;;;;;;18.30;64.70;;;;;;5019418;28;1967;-69
2024/02/08 16:59:35;;;;;;;;;;;18.20;64.60;;;;;;5019891;28;1309;-70
2024/02/08 17:02:07;;;;;;;;;;;18.30;64.70;;;;;;5020061;28;1282;-70
2024/02/08 17:04:48;;;;;;;;;;;18.30;64.70;;;;;;5019583;28;1018;-71
2024/02/08 17:10:05;;;;;;;;;;;18.30;64.80;;;;;;5019144;28;1117;-71
2024/02/08 17:12:56;;;;;;;;;;;18.30;64.80;;;;;;5020348;28;1105;-71